createdAt,value
2018-12-14T00:00:45.819Z,73.58
2018-12-14T00:01:46.058Z,73.99
2018-12-14T00:02:46.113Z,73.52
2018-12-14T00:03:46.241Z,73.43
2018-12-14T00:04:46.369Z,73.24
2018-12-14T00:05:46.502Z,73.61
2018-12-14T00:06:46.634Z,73.80
2018-12-14T00:07:46.757Z,74.28
2018-12-14T00:08:46.885Z,74.28
2018-12-14T00:09:47.017Z,73.58
2018-12-14T00:10:47.638Z,73.58
2018-12-14T00:11:47.280Z,73.49
2018-12-14T00:12:47.449Z,73.58
2018-12-14T00:13:47.573Z,74.28
2018-12-14T00:14:47.696Z,73.99
2018-12-14T00:15:47.829Z,73.80
2018-12-14T00:16:47.952Z,73.86
2018-12-14T00:17:48.077Z,73.58
2018-12-14T00:18:48.204Z,73.49
2018-12-14T00:19:48.329Z,73.39
2018-12-14T00:20:48.466Z,73.58
2018-12-14T00:21:48.590Z,73.68
2018-12-14T00:22:48.741Z,74.24
2018-12-14T00:23:48.841Z,73.96
2018-12-14T00:24:48.971Z,73.96
2018-12-14T00:25:49.093Z,74.33
2018-12-14T00:26:49.223Z,74.15
2018-12-14T00:27:49.345Z,74.15
2018-12-14T00:28:49.467Z,74.24
2018-12-14T00:29:49.591Z,73.96
2018-12-14T00:30:49.718Z,74.71
2018-12-14T00:31:49.842Z,75.19
2018-12-14T00:32:49.968Z,75.09
2018-12-14T00:33:50.098Z,74.90
2018-12-14T00:34:50.225Z,75.09
2018-12-14T00:35:50.346Z,75.00
2018-12-14T00:36:50.547Z,75.09
2018-12-14T00:37:50.579Z,75.09
2018-12-14T00:38:50.705Z,75.76
2018-12-14T00:39:50.835Z,75.76
2018-12-14T00:40:50.967Z,75.47
2018-12-14T00:41:52.020Z,75.47
2018-12-14T00:42:51.219Z,75.57
2018-12-14T00:43:51.346Z,75.76
2018-12-14T00:44:51.479Z,75.47
2018-12-14T00:45:51.600Z,75.95
2018-12-14T00:46:51.727Z,75.47
2018-12-14T00:47:51.854Z,75.76
2018-12-14T00:48:51.981Z,76.23
2018-12-14T00:49:52.107Z,75.95
2018-12-14T00:50:52.226Z,76.23
2018-12-14T00:51:53.121Z,76.42
2018-12-14T00:52:52.499Z,75.57
2018-12-14T00:53:52.627Z,76.32
2018-12-14T00:54:52.749Z,76.32
2018-12-14T00:55:52.874Z,75.76
2018-12-14T00:56:52.994Z,76.04
2018-12-14T00:57:53.121Z,75.76
2018-12-14T00:58:53.251Z,75.76
2018-12-14T00:59:53.374Z,75.85
2018-12-14T01:00:53.493Z,75.76
2018-12-14T01:01:53.627Z,75.57
2018-12-14T01:02:53.752Z,75.00
2018-12-14T01:03:53.881Z,75.57
2018-12-14T01:04:54.015Z,75.47
2018-12-14T01:05:54.132Z,75.28
2018-12-14T01:06:54.257Z,75.66
2018-12-14T01:07:54.387Z,75.66
2018-12-14T01:08:54.513Z,75.95
2018-12-14T01:09:54.634Z,76.51
2018-12-14T01:10:54.762Z,76.61
2018-12-14T01:11:58.217Z,76.32
2018-12-14T01:12:55.018Z,77.08
2018-12-14T01:13:55.142Z,76.89
2018-12-14T01:14:55.269Z,76.89
2018-12-14T01:15:55.399Z,76.70
2018-12-14T01:16:55.525Z,76.51
2018-12-14T01:17:55.655Z,76.32
2018-12-14T01:18:55.787Z,76.32
2018-12-14T01:19:55.912Z,76.61
2018-12-14T01:20:56.043Z,76.51
2018-12-14T01:21:56.164Z,76.14
2018-12-14T01:22:56.292Z,76.51
2018-12-14T01:23:56.418Z,76.99
2018-12-14T01:24:56.542Z,76.23
2018-12-14T01:25:56.671Z,76.14
2018-12-14T01:26:56.801Z,76.51
2018-12-14T01:27:56.935Z,76.61
2018-12-14T01:28:57.056Z,76.61
2018-12-14T01:29:57.178Z,77.18
2018-12-14T01:30:57.309Z,76.99
2018-12-14T01:31:57.437Z,77.18
2018-12-14T01:32:57.562Z,76.80
2018-12-14T01:33:57.686Z,76.51
2018-12-14T01:34:57.812Z,76.32
2018-12-14T01:35:57.940Z,76.51
2018-12-14T01:36:58.066Z,76.51
2018-12-14T01:37:58.192Z,76.51
2018-12-14T01:38:58.316Z,76.51
2018-12-14T01:39:59.123Z,76.80
2018-12-14T01:40:58.530Z,76.89
2018-12-14T01:42:04.624Z,77.08
2018-12-14T01:42:58.783Z,77.75
2018-12-14T01:43:58.905Z,77.65
2018-12-14T01:44:59.026Z,77.75
2018-12-14T01:45:59.153Z,77.37
2018-12-14T01:46:59.278Z,76.70
2018-12-14T01:47:59.403Z,77.08
2018-12-14T01:48:59.530Z,77.37
2018-12-14T01:49:59.664Z,76.89
2018-12-14T01:50:59.788Z,77.08
2018-12-14T01:51:59.907Z,77.46
2018-12-14T01:53:00.036Z,77.56
2018-12-14T01:54:00.170Z,77.75
2018-12-14T01:55:00.295Z,78.22
2018-12-14T01:56:00.421Z,78.22
2018-12-14T01:57:00.550Z,78.13
2018-12-14T01:58:00.675Z,77.27
2018-12-14T01:59:00.800Z,77.56
2018-12-14T02:00:00.977Z,77.56
2018-12-14T02:01:01.056Z,78.31
2018-12-14T02:02:01.185Z,78.22
2018-12-14T02:03:01.308Z,78.41
2018-12-14T02:04:01.432Z,77.84
2018-12-14T02:05:01.561Z,77.84
2018-12-14T02:06:01.684Z,77.56
2018-12-14T02:07:01.812Z,77.56
2018-12-14T02:08:01.940Z,77.75
2018-12-14T02:09:02.061Z,78.03
2018-12-14T02:10:02.189Z,77.84
2018-12-14T02:11:02.321Z,78.03
2018-12-14T02:12:02.455Z,78.03
2018-12-14T02:13:02.582Z,78.22
2018-12-14T02:14:02.709Z,78.41
2018-12-14T02:15:02.834Z,78.50
2018-12-14T02:16:02.959Z,77.94
2018-12-14T02:17:03.084Z,78.13
2018-12-14T02:18:03.203Z,78.50
2018-12-14T02:19:03.336Z,78.22
2018-12-14T02:20:03.462Z,78.22
2018-12-14T02:21:03.584Z,78.13
2018-12-14T02:22:03.709Z,77.56
2018-12-14T02:23:03.839Z,78.03
2018-12-14T02:24:03.970Z,78.03
2018-12-14T02:25:04.092Z,78.13
2018-12-14T02:26:04.214Z,77.84
2018-12-14T02:27:04.345Z,77.65
2018-12-14T02:28:04.474Z,77.37
2018-12-14T02:29:04.601Z,78.03
2018-12-14T02:30:04.726Z,78.41
2018-12-14T02:31:04.850Z,77.94
2018-12-14T02:32:04.975Z,77.75
2018-12-14T02:33:05.102Z,77.75
2018-12-14T02:34:05.233Z,77.56
2018-12-14T02:35:05.360Z,77.56
2018-12-14T02:36:05.480Z,78.13
2018-12-14T02:37:05.601Z,78.69
2018-12-14T02:38:05.797Z,78.79
2018-12-14T02:39:05.877Z,78.31
2018-12-14T02:40:05.979Z,78.41
2018-12-14T02:41:06.117Z,78.22
2018-12-14T02:42:06.238Z,78.13
2018-12-14T02:43:06.363Z,78.03
2018-12-14T02:44:06.491Z,78.03
2018-12-14T02:45:06.617Z,78.13
2018-12-14T02:46:06.745Z,78.22
2018-12-14T02:47:06.877Z,78.31
2018-12-14T02:48:06.997Z,78.31
2018-12-14T02:49:07.127Z,78.22
2018-12-14T02:50:07.246Z,78.50
2018-12-14T02:51:07.375Z,78.31
2018-12-14T02:52:07.493Z,78.31
2018-12-14T02:53:07.627Z,78.13
2018-12-14T02:54:07.755Z,78.22
2018-12-14T02:55:07.875Z,78.13
2018-12-14T02:56:07.991Z,78.31
2018-12-14T02:57:08.121Z,78.59
2018-12-14T02:58:08.254Z,78.88
2018-12-14T02:59:08.378Z,78.22
2018-12-14T03:00:08.501Z,78.13
2018-12-14T03:01:08.657Z,78.41
2018-12-14T03:02:08.753Z,78.22
2018-12-14T03:03:08.873Z,78.50
2018-12-14T03:04:08.999Z,78.98
2018-12-14T03:05:09.129Z,78.88
2018-12-14T03:06:09.256Z,78.98
2018-12-14T03:07:09.391Z,78.98
2018-12-14T03:08:09.523Z,79.07
2018-12-14T03:09:09.646Z,78.88
2018-12-14T03:10:09.776Z,79.07
2018-12-14T03:11:09.901Z,79.07
2018-12-14T03:12:10.028Z,78.59
2018-12-14T03:13:10.155Z,79.26
2018-12-14T03:14:10.286Z,79.55
2018-12-14T03:15:10.409Z,78.98
2018-12-14T03:16:10.540Z,78.88
2018-12-14T03:17:10.667Z,79.45
2018-12-14T03:18:10.792Z,79.36
2018-12-14T03:19:10.974Z,79.93
2018-12-14T03:20:11.044Z,79.17
2018-12-14T03:21:11.174Z,79.07
2018-12-14T03:22:11.296Z,79.36
2018-12-14T03:23:11.419Z,79.36
2018-12-14T03:24:11.544Z,79.36
2018-12-14T03:25:11.672Z,79.36
2018-12-14T03:26:11.801Z,79.93
2018-12-14T03:27:11.928Z,79.17
2018-12-14T03:28:12.056Z,79.93
2018-12-14T03:29:12.250Z,79.74
2018-12-14T03:30:12.312Z,79.74
2018-12-14T03:31:12.444Z,79.36
2018-12-14T03:32:12.574Z,79.64
2018-12-14T03:33:12.698Z,79.07
2018-12-14T03:34:12.823Z,78.88
2018-12-14T03:35:12.948Z,79.07
2018-12-14T03:36:13.071Z,78.79
2018-12-14T03:37:13.202Z,78.79
2018-12-14T03:38:13.335Z,79.17
2018-12-14T03:39:13.456Z,78.69
2018-12-14T03:40:13.583Z,78.79
2018-12-14T03:41:13.705Z,78.59
2018-12-14T03:42:13.833Z,78.41
2018-12-14T03:43:13.967Z,78.69
2018-12-14T03:44:14.086Z,78.69
2018-12-14T03:45:14.211Z,78.50
2018-12-14T03:46:14.338Z,78.69
2018-12-14T03:47:14.468Z,78.03
2018-12-14T03:48:14.589Z,78.59
2018-12-14T03:49:14.717Z,78.31
2018-12-14T03:50:14.844Z,77.75
2018-12-14T03:51:14.969Z,77.75
2018-12-14T03:52:15.099Z,77.56
2018-12-14T03:53:15.227Z,77.75
2018-12-14T03:54:15.350Z,78.03
2018-12-14T03:55:15.474Z,78.22
2018-12-14T03:56:15.602Z,78.13
2018-12-14T03:57:15.731Z,78.31
2018-12-14T03:58:15.854Z,78.03
2018-12-14T03:59:15.978Z,77.56
2018-12-14T04:00:16.108Z,77.75
2018-12-14T04:01:16.234Z,77.56
2018-12-14T04:02:16.370Z,78.22
2018-12-14T04:03:17.127Z,78.16
2018-12-14T04:04:16.568Z,77.08
2018-12-14T04:05:16.692Z,76.89
2018-12-14T04:06:16.817Z,76.89
2018-12-14T04:07:16.943Z,76.74
2018-12-14T04:08:17.070Z,77.12
2018-12-14T04:09:17.195Z,77.40
2018-12-14T04:10:17.318Z,76.84
2018-12-14T04:11:17.452Z,77.50
2018-12-14T04:12:17.576Z,76.61
2018-12-14T04:13:17.708Z,76.55
2018-12-14T04:14:17.838Z,76.65
2018-12-14T04:15:17.963Z,76.65
2018-12-14T04:16:18.103Z,76.93
2018-12-14T04:17:18.228Z,77.22
2018-12-14T04:18:18.350Z,76.55
2018-12-14T04:19:18.473Z,76.36
2018-12-14T04:20:18.602Z,76.65
2018-12-14T04:21:18.728Z,77.03
2018-12-14T04:22:18.865Z,76.65
2018-12-14T04:23:18.984Z,76.55
2018-12-14T04:24:19.112Z,76.74
2018-12-14T04:25:19.238Z,76.84
2018-12-14T04:26:19.378Z,76.55
2018-12-14T04:27:19.501Z,76.74
2018-12-14T04:28:19.634Z,76.32
2018-12-14T04:29:19.755Z,76.51
2018-12-14T04:30:19.875Z,76.32
2018-12-14T04:31:20.007Z,76.70
2018-12-14T04:32:20.133Z,76.80
2018-12-14T04:33:20.261Z,76.80
2018-12-14T04:34:20.389Z,76.99
2018-12-14T04:35:20.519Z,76.99
2018-12-14T04:36:20.666Z,76.99
2018-12-14T04:37:20.790Z,76.51
2018-12-14T04:38:20.916Z,76.51
2018-12-14T04:39:21.049Z,76.99
2018-12-14T04:40:21.173Z,76.99
2018-12-14T04:41:21.299Z,77.37
2018-12-14T04:42:21.429Z,77.18
2018-12-14T04:43:21.554Z,76.99
2018-12-14T04:44:21.674Z,76.70
2018-12-14T04:45:21.806Z,76.80
2018-12-14T04:46:21.926Z,76.32
2018-12-14T04:47:22.057Z,76.32
2018-12-14T04:48:22.183Z,77.08
2018-12-14T04:49:22.346Z,76.70
2018-12-14T04:50:22.436Z,76.51
2018-12-14T04:51:22.561Z,76.99
2018-12-14T04:52:22.684Z,77.08
2018-12-14T04:53:22.816Z,75.85
2018-12-14T04:54:22.942Z,76.14
2018-12-14T04:55:23.071Z,75.66
2018-12-14T04:56:23.194Z,75.66
2018-12-14T04:57:23.321Z,74.43
2018-12-14T04:58:23.443Z,74.62
2018-12-14T04:59:23.575Z,75.00
2018-12-14T05:00:23.703Z,74.71
2018-12-14T05:01:23.836Z,74.62
2018-12-14T05:02:23.961Z,74.52
2018-12-14T05:03:24.084Z,74.52
2018-12-14T05:04:24.210Z,74.43
2018-12-14T05:05:24.341Z,74.71
2018-12-14T05:06:24.467Z,74.90
2018-12-14T05:07:24.597Z,74.62
2018-12-14T05:08:24.728Z,74.05
2018-12-14T05:09:24.863Z,74.15
2018-12-14T05:10:24.984Z,73.39
2018-12-14T05:11:25.104Z,74.05
2018-12-14T05:12:25.236Z,73.58
2018-12-14T05:13:25.363Z,73.39
2018-12-14T05:14:25.525Z,73.39
2018-12-14T05:15:25.622Z,73.68
2018-12-14T05:16:25.750Z,73.96
2018-12-14T05:17:25.877Z,74.05
2018-12-14T05:18:26.001Z,73.96
2018-12-14T05:19:26.135Z,73.68
2018-12-14T05:20:26.260Z,73.86
2018-12-14T05:21:26.388Z,74.15
2018-12-14T05:22:26.513Z,74.62
2018-12-14T05:23:26.640Z,73.86
2018-12-14T05:24:26.764Z,73.86
2018-12-14T05:25:26.891Z,73.49
2018-12-14T05:26:27.027Z,74.24
2018-12-14T05:27:27.139Z,73.39
2018-12-14T05:28:27.270Z,73.39
2018-12-14T05:29:27.397Z,73.58
2018-12-14T05:30:27.525Z,74.28
2018-12-14T05:31:27.646Z,74.28
2018-12-14T05:32:27.771Z,73.71
2018-12-14T05:33:27.904Z,73.71
2018-12-14T05:34:28.026Z,73.52
2018-12-14T05:35:28.166Z,73.90
2018-12-14T05:36:28.295Z,73.99
2018-12-14T05:37:28.426Z,73.61
2018-12-14T05:38:28.583Z,73.61
2018-12-14T05:39:28.677Z,73.52
2018-12-14T05:40:28.807Z,73.20
2018-12-14T05:41:28.929Z,73.39
2018-12-14T05:42:29.052Z,73.80
2018-12-14T05:43:29.178Z,73.52
2018-12-14T05:44:29.309Z,73.80
2018-12-14T05:45:29.433Z,74.09
2018-12-14T05:46:29.562Z,74.28
2018-12-14T05:47:29.684Z,74.28
2018-12-14T05:48:29.810Z,74.28
2018-12-14T05:49:29.939Z,73.99
2018-12-14T05:50:30.067Z,73.33
2018-12-14T05:51:30.191Z,74.09
2018-12-14T05:52:30.320Z,73.61
2018-12-14T05:53:30.449Z,74.18
2018-12-14T05:54:30.582Z,73.96
2018-12-14T05:55:30.719Z,74.24
2018-12-14T05:56:30.848Z,73.90
2018-12-14T05:57:30.975Z,74.18
2018-12-14T05:58:31.113Z,74.33
2018-12-14T05:59:31.241Z,74.24
2018-12-14T06:00:31.368Z,74.18
2018-12-14T06:01:31.496Z,74.71
2018-12-14T06:02:31.623Z,74.43
2018-12-14T06:03:31.757Z,74.95
2018-12-14T06:04:31.892Z,75.00
2018-12-14T06:05:32.036Z,75.57
2018-12-14T06:06:32.142Z,75.47
2018-12-14T06:07:32.269Z,75.28
2018-12-14T06:08:32.399Z,75.85
2018-12-14T06:09:32.521Z,76.46
2018-12-14T06:10:32.650Z,75.85
2018-12-14T06:11:32.775Z,75.89
2018-12-14T06:12:32.904Z,75.70
2018-12-14T06:13:33.036Z,75.89
2018-12-14T06:14:33.156Z,75.23
2018-12-14T06:15:33.286Z,75.42
2018-12-14T06:16:33.409Z,75.28
2018-12-14T06:17:33.542Z,75.09
2018-12-14T06:18:33.676Z,75.70
2018-12-14T06:19:33.806Z,75.79
2018-12-14T06:20:33.934Z,75.60
2018-12-14T06:21:34.070Z,75.60
2018-12-14T06:22:34.192Z,75.70
2018-12-14T06:23:34.318Z,75.98
2018-12-14T06:24:34.444Z,75.79
2018-12-14T06:25:34.571Z,75.76
2018-12-14T06:26:34.703Z,76.51
2018-12-14T06:27:34.893Z,76.14
2018-12-14T06:28:34.897Z,75.66
2018-12-14T06:29:35.028Z,76.14
2018-12-14T06:30:35.151Z,75.47
2018-12-14T06:31:35.279Z,76.14
2018-12-14T06:32:35.410Z,76.61
2018-12-14T06:33:35.536Z,76.14
2018-12-14T06:34:35.670Z,76.14
2018-12-14T06:35:35.791Z,76.32
2018-12-14T06:36:35.921Z,76.42
2018-12-14T06:37:36.047Z,76.61
2018-12-14T06:38:36.187Z,76.32
2018-12-14T06:39:36.309Z,76.99
2018-12-14T06:40:36.436Z,76.89
2018-12-14T06:41:36.571Z,76.80
2018-12-14T06:42:36.693Z,76.42
2018-12-14T06:43:36.820Z,77.18
2018-12-14T06:44:37.631Z,76.65
2018-12-14T06:45:37.037Z,76.04
2018-12-14T06:46:37.166Z,76.08
2018-12-14T06:47:37.289Z,76.36
2018-12-14T06:48:37.420Z,75.51
2018-12-14T06:49:37.540Z,75.60
2018-12-14T06:50:37.667Z,74.90
2018-12-14T06:51:37.799Z,74.71
2018-12-14T06:52:37.923Z,74.71
2018-12-14T06:53:38.054Z,74.33
2018-12-14T06:54:38.181Z,74.33
2018-12-14T06:55:38.310Z,74.43
2018-12-14T06:56:38.430Z,74.90
2018-12-14T06:57:38.559Z,75.38
2018-12-14T06:58:38.692Z,75.47
2018-12-14T06:59:38.816Z,75.28
2018-12-14T07:00:38.944Z,75.76
2018-12-14T07:01:39.070Z,75.85
2018-12-14T07:02:39.196Z,75.76
2018-12-14T07:03:39.321Z,75.76
2018-12-14T07:04:39.451Z,75.28
2018-12-14T07:05:39.578Z,75.76
2018-12-14T07:06:39.708Z,75.42
2018-12-14T07:07:39.834Z,75.09
2018-12-14T07:08:39.957Z,75.13
2018-12-14T07:09:40.091Z,74.56
2018-12-14T07:10:40.216Z,74.85
2018-12-14T07:11:40.341Z,74.90
2018-12-14T07:12:40.837Z,74.15
2018-12-14T07:13:40.602Z,74.24
2018-12-14T07:14:40.730Z,74.52
2018-12-14T07:15:40.852Z,73.86
2018-12-14T07:16:40.979Z,74.05
2018-12-14T07:17:41.107Z,74.09
2018-12-14T07:18:41.236Z,74.28
2018-12-14T07:19:41.363Z,74.62
2018-12-14T07:20:41.490Z,73.90
2018-12-14T07:21:41.614Z,74.66
2018-12-14T07:22:41.756Z,74.28
2018-12-14T07:23:41.997Z,74.28
2018-12-14T07:24:42.005Z,74.28
2018-12-14T07:25:42.127Z,74.47
2018-12-14T07:26:42.254Z,74.09
2018-12-14T07:27:42.380Z,74.18
2018-12-14T07:28:42.506Z,74.47
2018-12-14T07:29:42.643Z,74.18
2018-12-14T07:30:42.761Z,74.28
2018-12-14T07:31:42.889Z,74.24
2018-12-14T07:32:43.014Z,74.66
2018-12-14T07:33:43.146Z,74.52
2018-12-14T07:34:43.265Z,74.62
2018-12-14T07:35:43.404Z,75.00
2018-12-14T07:36:43.529Z,75.04
2018-12-14T07:37:43.667Z,75.19
2018-12-14T07:38:48.177Z,75.70
2018-12-14T07:39:43.913Z,75.89
2018-12-14T07:40:44.042Z,76.36
2018-12-14T07:41:44.163Z,76.36
2018-12-14T07:42:44.297Z,76.74
2018-12-14T07:43:44.423Z,76.84
2018-12-14T07:44:44.592Z,76.84
2018-12-14T07:45:44.682Z,76.84
2018-12-14T07:46:44.812Z,76.93
2018-12-14T07:47:44.981Z,77.22
2018-12-14T07:48:45.108Z,77.88
2018-12-14T07:49:46.128Z,77.22
2018-12-14T07:50:45.415Z,76.84
2018-12-14T07:51:45.547Z,77.03
2018-12-14T07:52:45.671Z,77.31
2018-12-14T07:53:45.803Z,76.93
2018-12-14T07:54:45.931Z,77.50
2018-12-14T07:55:46.052Z,76.74
2018-12-14T07:56:46.181Z,76.17
2018-12-14T07:57:46.308Z,76.65
2018-12-14T07:58:46.438Z,76.46
2018-12-14T07:59:46.580Z,76.93
2018-12-14T08:00:46.716Z,76.74
2018-12-14T08:01:46.844Z,76.65
2018-12-14T08:02:46.973Z,76.36
2018-12-14T08:03:47.104Z,76.08
2018-12-14T08:04:47.229Z,75.98
2018-12-14T08:05:47.356Z,76.55
2018-12-14T08:06:47.498Z,76.27
2018-12-14T08:07:47.628Z,76.17
2018-12-14T08:08:47.754Z,76.17
2018-12-14T08:09:47.888Z,76.55
2018-12-14T08:10:48.014Z,76.08
2018-12-14T08:11:48.142Z,75.70
2018-12-14T08:12:48.271Z,75.79
2018-12-14T08:13:48.395Z,75.70
2018-12-14T08:14:48.529Z,75.89
2018-12-14T08:15:48.656Z,75.79
2018-12-14T08:16:48.784Z,75.79
2018-12-14T08:17:48.917Z,76.36
2018-12-14T08:18:49.039Z,77.03
2018-12-14T08:19:49.180Z,77.12
2018-12-14T08:20:49.326Z,76.93
2018-12-14T08:21:49.461Z,76.93
2018-12-14T08:22:49.587Z,76.74
2018-12-14T08:23:49.716Z,76.84
2018-12-14T08:24:49.844Z,76.74
2018-12-14T08:25:49.974Z,76.17
2018-12-14T08:26:50.105Z,76.46
2018-12-14T08:27:50.234Z,76.17
2018-12-14T08:28:50.362Z,75.60
2018-12-14T08:29:51.826Z,75.42
2018-12-14T08:30:50.613Z,75.51
2018-12-14T08:31:50.740Z,74.95
2018-12-14T08:32:50.875Z,75.60
2018-12-14T08:33:51.001Z,75.32
2018-12-14T08:34:51.485Z,75.70
2018-12-14T08:35:51.257Z,75.32
2018-12-14T08:36:51.386Z,75.74
2018-12-14T08:37:51.514Z,75.70
2018-12-14T08:38:51.638Z,75.51
2018-12-14T08:39:51.767Z,75.04
2018-12-14T08:40:51.897Z,75.70
2018-12-14T08:41:52.154Z,75.51
2018-12-14T08:42:52.174Z,75.79
2018-12-14T08:43:52.300Z,76.65
2018-12-14T08:44:52.433Z,76.74
2018-12-14T08:45:52.560Z,76.12
2018-12-14T08:46:52.695Z,75.79
2018-12-14T08:47:52.820Z,75.42
2018-12-14T08:48:52.944Z,75.60
2018-12-14T08:49:53.077Z,74.95
2018-12-14T08:50:53.224Z,75.32
2018-12-14T08:51:53.347Z,75.23
2018-12-14T08:52:53.479Z,74.88
2018-12-14T08:53:53.604Z,75.51
2018-12-14T08:54:53.733Z,76.93
2018-12-14T08:55:53.860Z,77.03
2018-12-14T08:56:53.988Z,76.93
2018-12-14T08:57:54.113Z,76.55
2018-12-14T08:58:54.239Z,76.17
2018-12-14T08:59:54.370Z,76.36
2018-12-14T09:00:54.502Z,75.70
2018-12-14T09:01:54.631Z,75.23
2018-12-14T09:02:54.759Z,74.95
2018-12-14T09:03:54.894Z,74.95
2018-12-14T09:04:55.028Z,75.13
2018-12-14T09:05:55.158Z,74.95
2018-12-14T09:06:55.293Z,74.56
2018-12-14T09:07:55.423Z,74.75
2018-12-14T09:08:55.551Z,73.99
2018-12-14T09:09:55.685Z,74.18
2018-12-14T09:10:55.815Z,74.37
2018-12-14T09:11:55.949Z,74.28
2018-12-14T09:12:56.077Z,74.18
2018-12-14T09:13:56.205Z,73.71
2018-12-14T09:14:56.336Z,73.61
2018-12-14T09:15:56.467Z,73.80
2018-12-14T09:16:56.604Z,73.90
2018-12-14T09:17:56.727Z,74.47
2018-12-14T09:18:56.858Z,74.15
2018-12-14T09:19:56.991Z,75.04
2018-12-14T09:21:01.026Z,74.75
2018-12-14T09:21:57.243Z,74.75
2018-12-14T09:22:57.368Z,74.81
2018-12-14T09:23:57.515Z,74.56
2018-12-14T09:24:57.638Z,74.62
2018-12-14T09:25:57.766Z,75.04
2018-12-14T09:26:58.646Z,75.23
2018-12-14T09:29:29.855Z,75.98
2018-12-14T09:30:29.979Z,75.42
2018-12-14T09:31:30.104Z,75.42
2018-12-14T09:32:30.232Z,75.60
2018-12-14T09:33:30.358Z,75.09
2018-12-14T09:34:30.487Z,75.00
2018-12-14T09:35:30.612Z,75.23
2018-12-14T09:36:30.735Z,75.23
2018-12-14T09:37:30.863Z,75.32
2018-12-14T09:38:30.982Z,75.70
2018-12-14T09:39:31.110Z,75.70
2018-12-14T09:40:31.242Z,75.70
2018-12-14T09:41:31.369Z,75.42
2018-12-14T09:42:31.504Z,75.13
2018-12-14T09:43:31.628Z,75.32
2018-12-14T09:44:31.763Z,75.04
2018-12-14T09:45:31.887Z,75.32
2018-12-14T09:46:37.003Z,74.85
2018-12-14T09:47:32.137Z,74.75
2018-12-14T09:48:32.269Z,74.95
2018-12-14T09:49:32.416Z,75.04
2018-12-14T09:50:32.534Z,75.13
2018-12-14T09:51:32.668Z,75.23
2018-12-14T09:52:32.798Z,74.95
2018-12-14T09:53:32.923Z,75.51
2018-12-14T09:54:33.049Z,75.51
2018-12-14T09:55:33.179Z,75.79
2018-12-14T09:56:33.314Z,75.89
2018-12-14T09:57:33.442Z,75.51
2018-12-14T09:58:33.644Z,75.60
2018-12-14T09:59:33.702Z,75.79
2018-12-14T10:00:33.837Z,75.32
2018-12-14T10:01:33.961Z,75.51
2018-12-14T10:02:34.090Z,75.32
2018-12-14T10:03:34.234Z,76.08
2018-12-14T10:04:34.367Z,76.17
2018-12-14T10:05:34.490Z,76.55
2018-12-14T10:06:34.633Z,75.51
2018-12-14T10:07:34.747Z,75.60
2018-12-14T10:08:34.872Z,75.51
2018-12-14T10:09:34.999Z,75.76
2018-12-14T10:10:35.120Z,75.85
2018-12-14T10:11:35.244Z,75.57
2018-12-14T10:12:35.380Z,75.76
2018-12-14T10:13:35.507Z,75.28
2018-12-14T10:14:35.645Z,75.57
2018-12-14T10:15:35.772Z,75.60
2018-12-14T10:16:35.906Z,75.89
2018-12-14T10:17:36.029Z,75.70
2018-12-14T10:18:36.157Z,75.70
2018-12-14T10:19:36.285Z,75.19
2018-12-14T10:20:36.411Z,75.79
2018-12-14T10:21:36.536Z,75.32
2018-12-14T10:22:41.514Z,75.60
2018-12-14T10:23:36.795Z,75.70
2018-12-14T10:24:36.922Z,75.51
2018-12-14T10:25:37.052Z,75.32
2018-12-14T10:26:37.171Z,75.13
2018-12-14T10:27:37.303Z,74.95
2018-12-14T10:28:37.430Z,74.95
2018-12-14T10:29:37.571Z,75.04
2018-12-14T10:30:37.688Z,75.23
2018-12-14T10:31:37.813Z,75.51
2018-12-14T10:32:37.938Z,75.04
2018-12-14T10:33:38.066Z,75.42
2018-12-14T10:34:38.195Z,75.47
2018-12-14T10:35:38.320Z,75.47
2018-12-14T10:36:38.447Z,76.42
2018-12-14T10:37:38.578Z,76.23
2018-12-14T10:38:38.705Z,76.89
2018-12-14T10:39:38.835Z,76.61
2018-12-14T10:40:38.962Z,76.70
2018-12-14T10:41:39.093Z,76.55
2018-12-14T10:42:39.234Z,76.84
2018-12-14T10:43:39.372Z,76.04
2018-12-14T10:44:39.500Z,76.32
2018-12-14T10:45:39.623Z,76.42
2018-12-14T10:46:39.773Z,76.04
2018-12-14T10:47:39.896Z,75.66
2018-12-14T10:48:40.029Z,75.95
2018-12-14T10:49:40.161Z,76.23
2018-12-14T10:50:40.295Z,76.04
2018-12-14T10:51:40.423Z,76.14
2018-12-14T10:52:40.556Z,76.14
2018-12-14T10:53:40.673Z,76.04
2018-12-14T10:54:40.799Z,76.27
2018-12-14T10:55:40.937Z,76.89
2018-12-14T10:56:41.060Z,76.36
2018-12-14T10:57:41.187Z,75.79
2018-12-14T10:58:41.322Z,76.08
2018-12-14T10:59:41.464Z,75.42
2018-12-14T11:00:41.595Z,75.57
2018-12-14T11:01:41.851Z,75.57
2018-12-14T11:02:41.874Z,75.66
2018-12-14T11:03:41.995Z,75.76
2018-12-14T11:04:42.167Z,75.70
2018-12-14T11:05:42.268Z,75.57
2018-12-14T11:06:42.386Z,75.76
2018-12-14T11:07:42.518Z,75.47
2018-12-14T11:08:42.662Z,75.19
2018-12-14T11:09:42.779Z,75.38
2018-12-14T11:10:42.907Z,75.28
2018-12-14T11:11:43.033Z,75.38
2018-12-14T11:12:43.185Z,75.19
2018-12-14T11:13:43.299Z,75.19
2018-12-14T11:14:43.427Z,75.09
2018-12-14T11:15:43.554Z,75.09
2018-12-14T11:16:43.696Z,75.28
2018-12-14T11:17:43.823Z,75.38
2018-12-14T11:18:43.947Z,75.66
2018-12-14T11:19:44.077Z,75.76
2018-12-14T11:20:44.210Z,75.76
2018-12-14T11:21:44.315Z,75.47
2018-12-14T11:22:44.445Z,76.04
2018-12-14T11:23:44.573Z,76.04
2018-12-14T11:24:44.738Z,75.76
2018-12-14T11:25:44.843Z,74.90
2018-12-14T11:26:44.969Z,75.95
2018-12-14T11:27:45.094Z,75.28
2018-12-14T11:28:45.243Z,75.57
2018-12-14T11:29:45.349Z,75.09
2018-12-14T11:30:45.479Z,74.62
2018-12-14T11:31:45.607Z,74.71
2018-12-14T11:32:45.765Z,74.52
2018-12-14T11:33:45.865Z,74.15
2018-12-14T11:34:45.994Z,74.43
2018-12-14T11:35:46.124Z,74.05
2018-12-14T11:36:46.251Z,74.24
2018-12-14T11:37:46.369Z,74.33
2018-12-14T11:38:46.498Z,74.43
2018-12-14T11:39:46.631Z,74.28
2018-12-14T11:40:46.759Z,74.09
2018-12-14T11:41:46.894Z,74.09
2018-12-14T11:42:47.019Z,74.09
2018-12-14T11:43:47.169Z,74.18
2018-12-14T11:44:47.283Z,73.52
2018-12-14T11:45:47.409Z,73.99
2018-12-14T11:46:47.538Z,73.43
2018-12-14T11:47:47.701Z,73.33
2018-12-14T11:48:47.804Z,73.33
2018-12-14T11:49:48.555Z,72.92
2018-12-14T11:50:48.068Z,72.16
2018-12-14T11:51:48.231Z,73.11
2018-12-14T11:52:48.341Z,72.63
2018-12-14T11:53:48.482Z,72.92
2018-12-14T11:54:48.623Z,73.49
2018-12-14T11:55:48.737Z,72.57
2018-12-14T11:56:48.872Z,73.43
2018-12-14T11:57:48.993Z,73.58
2018-12-14T11:58:49.128Z,73.39
2018-12-14T11:59:49.268Z,72.77
2018-12-14T12:00:49.393Z,72.19
2018-12-14T12:01:49.540Z,71.59
2018-12-14T12:02:49.661Z,71.21
2018-12-14T12:03:49.782Z,71.97
2018-12-14T12:04:49.920Z,72.92
2018-12-14T12:05:50.041Z,73.05
2018-12-14T12:06:50.166Z,72.63
2018-12-14T12:07:50.289Z,72.48
2018-12-14T12:08:50.433Z,72.29
2018-12-14T12:09:50.542Z,72.38
2018-12-14T12:10:50.726Z,72.48
2018-12-14T12:11:50.798Z,71.72
2018-12-14T12:12:50.932Z,72.48
2018-12-14T12:13:51.052Z,71.62
2018-12-14T12:14:51.186Z,72.00
2018-12-14T12:15:51.322Z,71.34
2018-12-14T12:16:51.496Z,70.58
2018-12-14T12:17:51.594Z,70.58
2018-12-14T12:18:51.716Z,71.78
2018-12-14T12:19:51.865Z,72.44
2018-12-14T12:20:53.020Z,71.81
2018-12-14T12:21:52.154Z,72.10
2018-12-14T12:22:52.280Z,71.53
2018-12-14T12:23:55.215Z,71.12
2018-12-14T12:24:52.537Z,71.59
2018-12-14T12:25:52.665Z,71.69
2018-12-14T12:26:52.790Z,71.31
2018-12-14T12:27:52.941Z,71.12
2018-12-14T12:28:53.059Z,70.74
2018-12-14T12:29:53.186Z,69.98
2018-12-14T12:30:53.307Z,69.60
2018-12-14T12:31:53.433Z,70.17
2018-12-14T12:32:53.556Z,70.17
2018-12-14T12:33:53.704Z,69.22
2018-12-14T12:34:53.839Z,69.41
2018-12-14T12:35:53.979Z,69.03
2018-12-14T12:36:54.103Z,68.94
2018-12-14T12:37:54.230Z,69.22
2018-12-14T12:38:54.359Z,69.41
2018-12-14T12:39:54.507Z,69.22
2018-12-14T12:40:54.652Z,69.13
2018-12-14T12:41:54.777Z,69.89
2018-12-14T12:42:54.907Z,69.60
2018-12-14T12:43:55.043Z,69.51
2018-12-14T12:44:55.189Z,69.03
2018-12-14T12:45:55.314Z,68.84
2018-12-14T12:46:55.437Z,68.94
2018-12-14T12:47:55.565Z,69.03
2018-12-14T12:48:55.696Z,68.56
2018-12-14T12:49:55.820Z,68.94
2018-12-14T12:50:55.952Z,68.75
2018-12-14T12:51:56.080Z,68.84
2018-12-14T12:52:56.214Z,69.41
2018-12-14T12:53:56.343Z,69.70
2018-12-14T12:54:56.483Z,68.94
2018-12-14T12:55:56.616Z,68.94